sensor_id;sensor_type;location;lat;lon;timestamp;temperature;humidity
24772;DHT22;12870;52.274;9.754;2023-02-01T00:00:25;6.10;99.90
24772;DHT22;12870;52.274;9.754;2023-02-01T00:02:51;6.00;99.90
24772;DHT22;12870;52.274;9.754;2023-02-01T00:05:16;6.00;99.90
24772;DHT22;12870;52.274;9.754;2023-02-01T00:07:42;6.00;99.90
24772;DHT22;12870;52.274;9.754;2023-02-01T00:10:08;6.00;99.90
24772;DHT22;12870;52.274;9.754;2023-02-01T00:12:34;5.90;99.90
24772;DHT22;12870;52.274;9.754;2023-02-01T00:15:00;6.00;99.90
24772;DHT22;12870;52.274;9.754;2023-02-01T00:17:26;6.00;99.90
24772;DHT22;12870;52.274;9.754;2023-02-01T00:19:52;6.00;99.90
24772;DHT22;12870;52.274;9.754;2023-02-01T00:22:17;5.90;99.90
24772;DHT22;12870;52.274;9.754;2023-02-01T00:24:43;5.90;99.90
24772;DHT22;12870;52.274;9.754;2023-02-01T00:27:09;5.90;99.90
24772;DHT22;12870;52.274;9.754;2023-02-01T00:29:35;5.90;99.90
24772;DHT22;12870;52.274;9.754;2023-02-01T00:32:00;5.80;99.90
24772;DHT22;12870;52.274;9.754;2023-02-01T00:34:26;5.90;99.90
24772;DHT22;12870;52.274;9.754;2023-02-01T00:36:52;5.90;99.90
24772;DHT22;12870;52.274;9.754;2023-02-01T00:39:17;5.80;99.90
24772;DHT22;12870;52.274;9.754;2023-02-01T00:41:43;5.80;99.90
24772;DHT22;12870;52.274;9.754;2023-02-01T00:44:09;5.80;99.90
24772;DHT22;12870;52.274;9.754;2023-02-01T00:46:35;5.80;99.90
24772;DHT22;12870;52.274;9.754;2023-02-01T00:49:01;5.80;99.90
24772;DHT22;12870;52.274;9.754;2023-02-01T00:51:28;5.80;99.90
24772;DHT22;12870;52.274;9.754;2023-02-01T00:53:53;5.80;99.90
24772;DHT22;12870;52.274;9.754;2023-02-01T00:56:19;5.70;99.90
24772;DHT22;12870;52.274;9.754;2023-02-01T00:58:45;5.70;99.90
24772;DHT22;12870;52.274;9.754;2023-02-01T01:01:19;5.70;99.90
24772;DHT22;12870;52.274;9.754;2023-02-01T01:04:03;5.80;99.90
24772;DHT22;12870;52.274;9.754;2023-02-01T01:06:31;5.70;99.90
24772;DHT22;12870;52.274;9.754;2023-02-01T01:08:59;5.80;99.90
24772;DHT22;12870;52.274;9.754;2023-02-01T01:11:30;5.80;99.90
24772;DHT22;12870;52.274;9.754;2023-02-01T01:13:57;5.70;99.90
24772;DHT22;12870;52.274;9.754;2023-02-01T01:16:25;5.70;99.90
24772;DHT22;12870;52.274;9.754;2023-02-01T01:18:51;5.70;99.90
24772;DHT22;12870;52.274;9.754;2023-02-01T01:21:17;5.70;99.90
24772;DHT22;12870;52.274;9.754;2023-02-01T01:23:44;5.70;99.90
24772;DHT22;12870;52.274;9.754;2023-02-01T01:26:18;5.70;99.90
24772;DHT22;12870;52.274;9.754;2023-02-01T01:28:45;5.70;99.90
24772;DHT22;12870;52.274;9.754;2023-02-01T01:31:12;5.70;99.90
24772;DHT22;12870;52.274;9.754;2023-02-01T01:33:38;5.60;99.90
24772;DHT22;12870;52.274;9.754;2023-02-01T01:36:08;5.60;99.90
24772;DHT22;12870;52.274;9.754;2023-02-01T01:38:38;5.60;99.90
24772;DHT22;12870;52.274;9.754;2023-02-01T01:41:04;5.70;99.90
24772;DHT22;12870;52.274;9.754;2023-02-01T01:43:52;5.70;99.90
24772;DHT22;12870;52.274;9.754;2023-02-01T01:46:20;5.70;99.90
24772;DHT22;12870;52.274;9.754;2023-02-01T01:48:50;5.80;99.90
24772;DHT22;12870;52.274;9.754;2023-02-01T01:51:19;5.70;99.90
24772;DHT22;12870;52.274;9.754;2023-02-01T01:53:53;5.70;99.90
24772;DHT22;12870;52.274;9.754;2023-02-01T01:56:22;5.70;99.90
24772;DHT22;12870;52.274;9.754;2023-02-01T01:58:48;5.70;99.90
24772;DHT22;12870;52.274;9.754;2023-02-01T02:01:13;5.70;99.90
24772;DHT22;12870;52.274;9.754;2023-02-01T02:03:42;5.70;99.90
24772;DHT22;12870;52.274;9.754;2023-02-01T02:06:30;5.70;99.90
24772;DHT22;12870;52.274;9.754;2023-02-01T02:08:58;5.70;99.90
24772;DHT22;12870;52.274;9.754;2023-02-01T02:11:23;5.70;99.90
24772;DHT22;12870;52.274;9.754;2023-02-01T02:13:52;5.60;99.90
24772;DHT22;12870;52.274;9.754;2023-02-01T02:22:06;5.60;99.90
24772;DHT22;12870;52.274;9.754;2023-02-01T02:27:12;5.60;99.90
24772;DHT22;12870;52.274;9.754;2023-02-01T02:44:31;5.70;99.90
24772;DHT22;12870;52.274;9.754;2023-02-01T02:50:37;5.80;99.90
24772;DHT22;12870;52.274;9.754;2023-02-01T02:53:38;5.80;99.90
24772;DHT22;12870;52.274;9.754;2023-02-01T02:56:24;5.70;99.90
24772;DHT22;12870;52.274;9.754;2023-02-01T02:59:12;5.80;99.90
24772;DHT22;12870;52.274;9.754;2023-02-01T03:01:58;5.70;99.90
24772;DHT22;12870;52.274;9.754;2023-02-01T03:04:42;5.70;99.90
24772;DHT22;12870;52.274;9.754;2023-02-01T03:16:02;5.80;99.90
24772;DHT22;12870;52.274;9.754;2023-02-01T03:18:48;5.80;99.90
24772;DHT22;12870;52.274;9.754;2023-02-01T03:21:22;5.70;99.90
24772;DHT22;12870;52.274;9.754;2023-02-01T03:23:51;5.80;99.90
24772;DHT22;12870;52.274;9.754;2023-02-01T03:26:19;5.80;99.90
24772;DHT22;12870;52.274;9.754;2023-02-01T03:28:56;5.90;99.90
24772;DHT22;12870;52.274;9.754;2023-02-01T03:31:23;5.90;99.90
24772;DHT22;12870;52.274;9.754;2023-02-01T03:33:49;5.90;99.90
24772;DHT22;12870;52.274;9.754;2023-02-01T03:36:25;5.90;99.90
24772;DHT22;12870;52.274;9.754;2023-02-01T03:39:02;5.90;99.90
24772;DHT22;12870;52.274;9.754;2023-02-01T03:41:37;5.90;99.90
24772;DHT22;12870;52.274;9.754;2023-02-01T03:44:25;5.90;99.90
24772;DHT22;12870;52.274;9.754;2023-02-01T03:51:59;5.80;99.90
24772;DHT22;12870;52.274;9.754;2023-02-01T03:54:29;5.80;99.90
24772;DHT22;12870;52.274;9.754;2023-02-01T03:56:59;5.80;99.90
24772;DHT22;12870;52.274;9.754;2023-02-01T03:59:25;5.60;99.90
24772;DHT22;12870;52.274;9.754;2023-02-01T04:01:51;5.60;99.90
24772;DHT22;12870;52.274;9.754;2023-02-01T04:04:18;5.60;99.90
24772;DHT22;12870;52.274;9.754;2023-02-01T04:06:50;5.60;99.90
24772;DHT22;12870;52.274;9.754;2023-02-01T04:09:19;5.50;99.90
24772;DHT22;12870;52.274;9.754;2023-02-01T04:11:45;5.50;99.90
24772;DHT22;12870;52.274;9.754;2023-02-01T04:14:11;5.50;99.90
24772;DHT22;12870;52.274;9.754;2023-02-01T04:16:36;5.40;99.90
24772;DHT22;12870;52.274;9.754;2023-02-01T04:19:02;5.50;99.90
24772;DHT22;12870;52.274;9.754;2023-02-01T04:21:28;5.50;99.90
24772;DHT22;12870;52.274;9.754;2023-02-01T04:23:54;5.50;99.90
24772;DHT22;12870;52.274;9.754;2023-02-01T04:26:20;5.60;99.90
24772;DHT22;12870;52.274;9.754;2023-02-01T04:28:47;5.60;99.90
24772;DHT22;12870;52.274;9.754;2023-02-01T04:31:16;5.70;99.90
24772;DHT22;12870;52.274;9.754;2023-02-01T04:33:42;5.70;99.90
24772;DHT22;12870;52.274;9.754;2023-02-01T04:36:08;5.70;99.90
24772;DHT22;12870;52.274;9.754;2023-02-01T04:38:34;5.70;99.90
24772;DHT22;12870;52.274;9.754;2023-02-01T04:41:00;5.80;99.90
24772;DHT22;12870;52.274;9.754;2023-02-01T04:43:26;5.80;99.90
24772;DHT22;12870;52.274;9.754;2023-02-01T04:45:52;5.80;99.90
24772;DHT22;12870;52.274;9.754;2023-02-01T04:48:19;5.80;99.90
24772;DHT22;12870;52.274;9.754;2023-02-01T04:50:46;5.80;99.90
24772;DHT22;12870;52.274;9.754;2023-02-01T04:53:16;5.80;99.90
24772;DHT22;12870;52.274;9.754;2023-02-01T04:55:43;5.80;99.90
24772;DHT22;12870;52.274;9.754;2023-02-01T04:58:09;5.80;99.90
24772;DHT22;12870;52.274;9.754;2023-02-01T05:00:35;5.80;99.90
24772;DHT22;12870;52.274;9.754;2023-02-01T05:03:01;5.70;99.90
24772;DHT22;12870;52.274;9.754;2023-02-01T05:05:27;5.70;99.90
24772;DHT22;12870;52.274;9.754;2023-02-01T05:07:53;5.60;99.90
24772;DHT22;12870;52.274;9.754;2023-02-01T05:10:19;5.60;99.90
24772;DHT22;12870;52.274;9.754;2023-02-01T05:12:45;5.50;99.90
24772;DHT22;12870;52.274;9.754;2023-02-01T05:15:30;5.50;99.90
24772;DHT22;12870;52.274;9.754;2023-02-01T05:17:56;5.50;99.90
24772;DHT22;12870;52.274;9.754;2023-02-01T05:20:22;5.50;99.90
24772;DHT22;12870;52.274;9.754;2023-02-01T05:22:48;5.50;99.90
24772;DHT22;12870;52.274;9.754;2023-02-01T05:25:13;5.50;99.90
24772;DHT22;12870;52.274;9.754;2023-02-01T05:27:39;5.40;99.90
24772;DHT22;12870;52.274;9.754;2023-02-01T05:30:06;5.30;99.90
24772;DHT22;12870;52.274;9.754;2023-02-01T05:32:32;5.40;99.90
24772;DHT22;12870;52.274;9.754;2023-02-01T05:34:58;5.30;99.90
24772;DHT22;12870;52.274;9.754;2023-02-01T05:37:24;5.40;99.90
24772;DHT22;12870;52.274;9.754;2023-02-01T05:39:50;5.40;99.90
24772;DHT22;12870;52.274;9.754;2023-02-01T05:42:15;5.40;99.90
24772;DHT22;12870;52.274;9.754;2023-02-01T05:44:41;5.50;99.90
24772;DHT22;12870;52.274;9.754;2023-02-01T05:47:07;5.60;99.90
24772;DHT22;12870;52.274;9.754;2023-02-01T05:49:33;5.50;99.90
24772;DHT22;12870;52.274;9.754;2023-02-01T05:51:59;5.50;99.90
24772;DHT22;12870;52.274;9.754;2023-02-01T05:54:24;5.60;99.90
24772;DHT22;12870;52.274;9.754;2023-02-01T05:56:50;5.60;99.90
24772;DHT22;12870;52.274;9.754;2023-02-01T05:59:16;5.60;99.90
24772;DHT22;12870;52.274;9.754;2023-02-01T06:01:41;5.60;99.90
24772;DHT22;12870;52.274;9.754;2023-02-01T06:04:07;5.70;99.90
24772;DHT22;12870;52.274;9.754;2023-02-01T06:06:33;5.60;99.90
24772;DHT22;12870;52.274;9.754;2023-02-01T06:09:00;5.70;99.90
24772;DHT22;12870;52.274;9.754;2023-02-01T06:11:26;5.70;99.90
24772;DHT22;12870;52.274;9.754;2023-02-01T06:13:52;5.70;99.90
24772;DHT22;12870;52.274;9.754;2023-02-01T06:16:17;5.60;99.90
24772;DHT22;12870;52.274;9.754;2023-02-01T06:18:43;5.60;99.90
24772;DHT22;12870;52.274;9.754;2023-02-01T06:21:09;5.70;99.90
24772;DHT22;12870;52.274;9.754;2023-02-01T06:23:34;5.60;99.90
24772;DHT22;12870;52.274;9.754;2023-02-01T06:26:01;5.60;99.90
24772;DHT22;12870;52.274;9.754;2023-02-01T06:28:29;5.60;99.90
24772;DHT22;12870;52.274;9.754;2023-02-01T06:30:55;5.60;99.90
24772;DHT22;12870;52.274;9.754;2023-02-01T06:33:21;5.60;99.90
24772;DHT22;12870;52.274;9.754;2023-02-01T06:35:46;5.70;99.90
24772;DHT22;12870;52.274;9.754;2023-02-01T06:38:13;5.70;99.90
24772;DHT22;12870;52.274;9.754;2023-02-01T06:40:39;5.70;99.90
24772;DHT22;12870;52.274;9.754;2023-02-01T06:43:07;5.70;99.90
24772;DHT22;12870;52.274;9.754;2023-02-01T06:45:33;5.60;99.90
24772;DHT22;12870;52.274;9.754;2023-02-01T06:47:59;5.50;99.90
24772;DHT22;12870;52.274;9.754;2023-02-01T06:50:26;5.30;99.90
24772;DHT22;12870;52.274;9.754;2023-02-01T06:52:52;5.40;99.90
24772;DHT22;12870;52.274;9.754;2023-02-01T06:55:17;5.30;99.90
24772;DHT22;12870;52.274;9.754;2023-02-01T06:57:43;5.40;99.90
24772;DHT22;12870;52.274;9.754;2023-02-01T07:00:09;5.40;99.90
24772;DHT22;12870;52.274;9.754;2023-02-01T07:02:35;5.40;99.90
24772;DHT22;12870;52.274;9.754;2023-02-01T07:05:01;5.40;99.90
24772;DHT22;12870;52.274;9.754;2023-02-01T07:07:26;5.50;99.90
24772;DHT22;12870;52.274;9.754;2023-02-01T07:09:52;5.40;99.90
24772;DHT22;12870;52.274;9.754;2023-02-01T07:12:19;5.40;99.90
24772;DHT22;12870;52.274;9.754;2023-02-01T07:14:44;5.30;99.90
24772;DHT22;12870;52.274;9.754;2023-02-01T07:17:10;5.30;99.90
24772;DHT22;12870;52.274;9.754;2023-02-01T07:19:35;5.40;99.90
24772;DHT22;12870;52.274;9.754;2023-02-01T07:22:01;5.40;99.90
24772;DHT22;12870;52.274;9.754;2023-02-01T07:24:27;5.40;99.90
24772;DHT22;12870;52.274;9.754;2023-02-01T07:26:52;5.50;99.90
24772;DHT22;12870;52.274;9.754;2023-02-01T07:29:18;5.50;99.90
24772;DHT22;12870;52.274;9.754;2023-02-01T07:31:44;5.50;99.90
24772;DHT22;12870;52.274;9.754;2023-02-01T07:34:10;5.60;99.90
24772;DHT22;12870;52.274;9.754;2023-02-01T07:36:36;5.60;99.90
24772;DHT22;12870;52.274;9.754;2023-02-01T07:39:05;5.70;99.90
24772;DHT22;12870;52.274;9.754;2023-02-01T07:41:31;5.70;99.90
24772;DHT22;12870;52.274;9.754;2023-02-01T07:43:56;5.80;99.90
24772;DHT22;12870;52.274;9.754;2023-02-01T07:46:22;5.90;99.90
24772;DHT22;12870;52.274;9.754;2023-02-01T07:48:48;5.90;99.90
24772;DHT22;12870;52.274;9.754;2023-02-01T07:51:16;6.00;99.90
24772;DHT22;12870;52.274;9.754;2023-02-01T07:53:43;6.00;99.90
24772;DHT22;12870;52.274;9.754;2023-02-01T07:56:20;6.00;99.90
24772;DHT22;12870;52.274;9.754;2023-02-01T07:58:53;6.00;99.90
24772;DHT22;12870;52.274;9.754;2023-02-01T08:01:23;6.00;99.90
24772;DHT22;12870;52.274;9.754;2023-02-01T08:04:00;6.00;99.90
24772;DHT22;12870;52.274;9.754;2023-02-01T08:06:27;6.10;99.90
24772;DHT22;12870;52.274;9.754;2023-02-01T08:08:53;6.10;99.90
24772;DHT22;12870;52.274;9.754;2023-02-01T08:11:20;6.10;99.90
24772;DHT22;12870;52.274;9.754;2023-02-01T08:13:46;6.10;99.90
24772;DHT22;12870;52.274;9.754;2023-02-01T08:16:13;6.10;99.90
24772;DHT22;12870;52.274;9.754;2023-02-01T08:18:40;6.10;99.90
24772;DHT22;12870;52.274;9.754;2023-02-01T08:23:41;6.20;99.90
24772;DHT22;12870;52.274;9.754;2023-02-01T08:26:21;6.20;99.90
24772;DHT22;12870;52.274;9.754;2023-02-01T08:28:53;6.20;99.90
24772;DHT22;12870;52.274;9.754;2023-02-01T08:31:21;6.30;99.90
24772;DHT22;12870;52.274;9.754;2023-02-01T08:33:56;6.30;99.90
24772;DHT22;12870;52.274;9.754;2023-02-01T08:36:23;6.30;99.90
24772;DHT22;12870;52.274;9.754;2023-02-01T08:38:49;6.30;99.90
24772;DHT22;12870;52.274;9.754;2023-02-01T08:41:18;6.30;99.90
24772;DHT22;12870;52.274;9.754;2023-02-01T08:43:44;6.40;99.90
24772;DHT22;12870;52.274;9.754;2023-02-01T08:46:10;6.50;99.90
24772;DHT22;12870;52.274;9.754;2023-02-01T08:48:37;6.50;99.90
24772;DHT22;12870;52.274;9.754;2023-02-01T08:51:09;6.50;99.90
24772;DHT22;12870;52.274;9.754;2023-02-01T08:53:36;6.50;99.90
24772;DHT22;12870;52.274;9.754;2023-02-01T08:56:02;6.50;99.90
24772;DHT22;12870;52.274;9.754;2023-02-01T08:58:28;6.60;99.90
24772;DHT22;12870;52.274;9.754;2023-02-01T09:00:54;6.60;99.90
24772;DHT22;12870;52.274;9.754;2023-02-01T09:03:20;6.60;99.90
24772;DHT22;12870;52.274;9.754;2023-02-01T09:05:46;6.70;99.90
24772;DHT22;12870;52.274;9.754;2023-02-01T09:08:13;6.80;99.90
24772;DHT22;12870;52.274;9.754;2023-02-01T09:10:41;6.90;99.90
24772;DHT22;12870;52.274;9.754;2023-02-01T09:13:07;6.90;99.90
24772;DHT22;12870;52.274;9.754;2023-02-01T09:15:33;7.00;99.90
24772;DHT22;12870;52.274;9.754;2023-02-01T09:17:59;7.10;99.90
24772;DHT22;12870;52.274;9.754;2023-02-01T09:20:25;7.10;99.90
24772;DHT22;12870;52.274;9.754;2023-02-01T09:22:52;7.20;99.90
24772;DHT22;12870;52.274;9.754;2023-02-01T09:25:18;7.20;99.90
24772;DHT22;12870;52.274;9.754;2023-02-01T09:27:44;7.10;99.90
24772;DHT22;12870;52.274;9.754;2023-02-01T09:30:10;7.10;99.90
24772;DHT22;12870;52.274;9.754;2023-02-01T09:32:36;7.10;99.90
24772;DHT22;12870;52.274;9.754;2023-02-01T09:35:02;7.10;99.90
24772;DHT22;12870;52.274;9.754;2023-02-01T09:37:28;7.10;99.90
24772;DHT22;12870;52.274;9.754;2023-02-01T09:39:53;7.00;99.90
24772;DHT22;12870;52.274;9.754;2023-02-01T09:47:59;7.00;99.90
24772;DHT22;12870;52.274;9.754;2023-02-01T09:50:36;7.00;99.90
24772;DHT22;12870;52.274;9.754;2023-02-01T09:53:25;7.00;99.90
24772;DHT22;12870;52.274;9.754;2023-02-01T09:56:04;7.00;99.90
24772;DHT22;12870;52.274;9.754;2023-02-01T09:58:42;7.10;99.90
24772;DHT22;12870;52.274;9.754;2023-02-01T10:01:21;7.10;99.90
24772;DHT22;12870;52.274;9.754;2023-02-01T10:03:49;7.10;99.90
24772;DHT22;12870;52.274;9.754;2023-02-01T10:06:51;7.10;99.90
24772;DHT22;12870;52.274;9.754;2023-02-01T10:12:22;7.10;99.90
24772;DHT22;12870;52.274;9.754;2023-02-01T10:17:53;7.20;99.90
24772;DHT22;12870;52.274;9.754;2023-02-01T10:23:21;7.30;99.90
24772;DHT22;12870;52.274;9.754;2023-02-01T10:25:56;7.40;99.90
24772;DHT22;12870;52.274;9.754;2023-02-01T10:28:25;7.40;99.90
24772;DHT22;12870;52.274;9.754;2023-02-01T10:30:54;7.30;99.90
24772;DHT22;12870;52.274;9.754;2023-02-01T10:35:58;7.40;99.90
24772;DHT22;12870;52.274;9.754;2023-02-01T10:38:29;7.40;99.90
24772;DHT22;12870;52.274;9.754;2023-02-01T10:41:00;7.40;99.90
24772;DHT22;12870;52.274;9.754;2023-02-01T10:43:27;7.40;99.90
24772;DHT22;12870;52.274;9.754;2023-02-01T10:45:52;7.50;99.90
24772;DHT22;12870;52.274;9.754;2023-02-01T10:48:18;7.50;99.90
24772;DHT22;12870;52.274;9.754;2023-02-01T10:50:51;7.40;99.90
24772;DHT22;12870;52.274;9.754;2023-02-01T10:58:20;7.40;99.90
24772;DHT22;12870;52.274;9.754;2023-02-01T11:01:00;7.40;99.90
24772;DHT22;12870;52.274;9.754;2023-02-01T11:06:10;7.40;99.90
24772;DHT22;12870;52.274;9.754;2023-02-01T11:08:51;7.40;99.90
24772;DHT22;12870;52.274;9.754;2023-02-01T11:11:18;7.40;99.90
24772;DHT22;12870;52.274;9.754;2023-02-01T11:13:44;7.30;99.90
24772;DHT22;12870;52.274;9.754;2023-02-01T11:16:14;7.40;99.90
24772;DHT22;12870;52.274;9.754;2023-02-01T11:18:40;7.30;99.90
24772;DHT22;12870;52.274;9.754;2023-02-01T11:21:08;7.30;99.90
24772;DHT22;12870;52.274;9.754;2023-02-01T11:23:43;7.30;99.90
24772;DHT22;12870;52.274;9.754;2023-02-01T11:26:24;7.30;99.90
24772;DHT22;12870;52.274;9.754;2023-02-01T11:28:59;7.30;99.90
24772;DHT22;12870;52.274;9.754;2023-02-01T11:31:27;7.30;99.90
24772;DHT22;12870;52.274;9.754;2023-02-01T11:34:14;7.40;99.90
24772;DHT22;12870;52.274;9.754;2023-02-01T11:36:41;7.40;99.90
24772;DHT22;12870;52.274;9.754;2023-02-01T11:39:24;7.40;99.90
24772;DHT22;12870;52.274;9.754;2023-02-01T11:42:15;7.40;99.90
24772;DHT22;12870;52.274;9.754;2023-02-01T11:44:43;7.40;99.90
24772;DHT22;12870;52.274;9.754;2023-02-01T11:47:24;7.40;99.90
24772;DHT22;12870;52.274;9.754;2023-02-01T11:49:58;7.40;99.90
24772;DHT22;12870;52.274;9.754;2023-02-01T11:52:30;7.30;99.90
24772;DHT22;12870;52.274;9.754;2023-02-01T11:58:00;7.50;99.90
24772;DHT22;12870;52.274;9.754;2023-02-01T12:15:05;7.60;99.90
24772;DHT22;12870;52.274;9.754;2023-02-01T12:17:50;7.70;99.90
24772;DHT22;12870;52.274;9.754;2023-02-01T12:25:34;7.90;99.90
24772;DHT22;12870;52.274;9.754;2023-02-01T12:31:10;7.50;99.90
24772;DHT22;12870;52.274;9.754;2023-02-01T12:34:07;7.40;99.90
24772;DHT22;12870;52.274;9.754;2023-02-01T12:39:40;6.90;99.90
24772;DHT22;12870;52.274;9.754;2023-02-01T12:42:21;6.80;99.90
24772;DHT22;12870;52.274;9.754;2023-02-01T12:44:52;6.60;99.90
24772;DHT22;12870;52.274;9.754;2023-02-01T12:47:47;6.50;99.90
24772;DHT22;12870;52.274;9.754;2023-02-01T12:50:35;6.50;99.90
24772;DHT22;12870;52.274;9.754;2023-02-01T12:53:18;6.50;99.90
24772;DHT22;12870;52.274;9.754;2023-02-01T12:55:52;6.40;99.90
24772;DHT22;12870;52.274;9.754;2023-02-01T12:58:43;6.50;99.90
24772;DHT22;12870;52.274;9.754;2023-02-01T13:04:26;6.80;99.90
24772;DHT22;12870;52.274;9.754;2023-02-01T13:07:25;6.80;99.90
24772;DHT22;12870;52.274;9.754;2023-02-01T13:10:02;6.80;99.90
24772;DHT22;12870;52.274;9.754;2023-02-01T13:12:54;6.90;99.90
24772;DHT22;12870;52.274;9.754;2023-02-01T13:15:27;6.70;99.90
24772;DHT22;12870;52.274;9.754;2023-02-01T13:17:57;6.80;99.90
24772;DHT22;12870;52.274;9.754;2023-02-01T13:23:30;6.60;99.90
24772;DHT22;12870;52.274;9.754;2023-02-01T13:25:56;6.40;99.90
24772;DHT22;12870;52.274;9.754;2023-02-01T13:45:19;6.00;99.90
24772;DHT22;12870;52.274;9.754;2023-02-01T13:47:47;5.90;99.90
24772;DHT22;12870;52.274;9.754;2023-02-01T13:50:30;5.90;99.90
24772;DHT22;12870;52.274;9.754;2023-02-01T13:53:34;5.10;99.90
24772;DHT22;12870;52.274;9.754;2023-02-01T13:56:22;3.80;99.90
24772;DHT22;12870;52.274;9.754;2023-02-01T13:58:49;3.40;99.90
24772;DHT22;12870;52.274;9.754;2023-02-01T14:11:46;2.60;99.90
24772;DHT22;12870;52.274;9.754;2023-02-01T14:16:41;2.60;99.90
24772;DHT22;12870;52.274;9.754;2023-02-01T14:19:23;2.60;99.90
24772;DHT22;12870;52.274;9.754;2023-02-01T14:21:57;2.60;99.90
24772;DHT22;12870;52.274;9.754;2023-02-01T14:24:32;2.60;99.90
24772;DHT22;12870;52.274;9.754;2023-02-01T14:27:18;2.60;99.90
24772;DHT22;12870;52.274;9.754;2023-02-01T14:29:51;2.50;99.90
24772;DHT22;12870;52.274;9.754;2023-02-01T14:32:25;2.60;99.90
24772;DHT22;12870;52.274;9.754;2023-02-01T14:34:56;2.70;99.90
24772;DHT22;12870;52.274;9.754;2023-02-01T14:37:33;2.70;99.90
24772;DHT22;12870;52.274;9.754;2023-02-01T14:47:49;2.80;99.90
24772;DHT22;12870;52.274;9.754;2023-02-01T14:55:47;3.20;99.90
24772;DHT22;12870;52.274;9.754;2023-02-01T14:58:35;3.30;99.90
24772;DHT22;12870;52.274;9.754;2023-02-01T15:01:24;3.40;99.90
24772;DHT22;12870;52.274;9.754;2023-02-01T15:06:30;3.60;99.90
24772;DHT22;12870;52.274;9.754;2023-02-01T15:09:08;3.60;99.90
24772;DHT22;12870;52.274;9.754;2023-02-01T15:14:33;3.70;99.90
24772;DHT22;12870;52.274;9.754;2023-02-01T15:16:59;3.70;99.90
24772;DHT22;12870;52.274;9.754;2023-02-01T15:19:39;3.80;99.90
24772;DHT22;12870;52.274;9.754;2023-02-01T15:22:21;3.90;99.90
24772;DHT22;12870;52.274;9.754;2023-02-01T15:25:00;3.90;99.90
24772;DHT22;12870;52.274;9.754;2023-02-01T15:27:28;4.10;99.90
24772;DHT22;12870;52.274;9.754;2023-02-01T15:30:19;4.10;99.90
24772;DHT22;12870;52.274;9.754;2023-02-01T15:32:46;4.20;99.90
24772;DHT22;12870;52.274;9.754;2023-02-01T15:38:34;4.30;99.90
24772;DHT22;12870;52.274;9.754;2023-02-01T15:41:19;4.30;99.90
24772;DHT22;12870;52.274;9.754;2023-02-01T15:46:38;4.30;99.90
24772;DHT22;12870;52.274;9.754;2023-02-01T15:51:51;4.40;99.90
24772;DHT22;12870;52.274;9.754;2023-02-01T15:54:30;4.40;99.90
24772;DHT22;12870;52.274;9.754;2023-02-01T15:56:59;4.40;99.90
24772;DHT22;12870;52.274;9.754;2023-02-01T15:59:45;4.40;99.90
24772;DHT22;12870;52.274;9.754;2023-02-01T16:02:36;4.50;99.90
24772;DHT22;12870;52.274;9.754;2023-02-01T16:05:05;4.60;99.90
24772;DHT22;12870;52.274;9.754;2023-02-01T16:07:33;4.60;99.90
24772;DHT22;12870;52.274;9.754;2023-02-01T16:10:03;4.70;99.90
24772;DHT22;12870;52.274;9.754;2023-02-01T16:12:46;4.80;99.90
24772;DHT22;12870;52.274;9.754;2023-02-01T16:15:12;4.80;99.90
24772;DHT22;12870;52.274;9.754;2023-02-01T16:17:38;4.80;99.90
24772;DHT22;12870;52.274;9.754;2023-02-01T16:20:04;4.90;99.90
24772;DHT22;12870;52.274;9.754;2023-02-01T16:22:30;4.80;99.90
24772;DHT22;12870;52.274;9.754;2023-02-01T16:24:56;4.80;99.90
24772;DHT22;12870;52.274;9.754;2023-02-01T16:27:23;4.80;99.90
24772;DHT22;12870;52.274;9.754;2023-02-01T16:29:49;4.80;99.90
24772;DHT22;12870;52.274;9.754;2023-02-01T16:32:18;4.80;99.90
24772;DHT22;12870;52.274;9.754;2023-02-01T16:34:45;4.80;99.90
24772;DHT22;12870;52.274;9.754;2023-02-01T16:37:14;4.90;99.90
24772;DHT22;12870;52.274;9.754;2023-02-01T16:39:41;4.90;99.90
24772;DHT22;12870;52.274;9.754;2023-02-01T16:42:14;5.00;99.90
24772;DHT22;12870;52.274;9.754;2023-02-01T16:44:40;5.00;99.90
24772;DHT22;12870;52.274;9.754;2023-02-01T16:47:16;5.00;99.90
24772;DHT22;12870;52.274;9.754;2023-02-01T16:49:42;5.00;99.90
24772;DHT22;12870;52.274;9.754;2023-02-01T16:52:23;5.10;99.90
24772;DHT22;12870;52.274;9.754;2023-02-01T16:54:55;5.20;99.90
24772;DHT22;12870;52.274;9.754;2023-02-01T16:57:21;5.20;99.90
24772;DHT22;12870;52.274;9.754;2023-02-01T16:59:49;5.30;99.90
24772;DHT22;12870;52.274;9.754;2023-02-01T17:02:17;5.30;99.90
24772;DHT22;12870;52.274;9.754;2023-02-01T17:04:44;5.30;99.90
24772;DHT22;12870;52.274;9.754;2023-02-01T17:07:15;5.30;99.90
24772;DHT22;12870;52.274;9.754;2023-02-01T17:09:42;5.30;99.90
24772;DHT22;12870;52.274;9.754;2023-02-01T17:12:29;5.30;99.90
24772;DHT22;12870;52.274;9.754;2023-02-01T17:14:56;5.30;99.90
24772;DHT22;12870;52.274;9.754;2023-02-01T17:17:23;5.30;99.90
24772;DHT22;12870;52.274;9.754;2023-02-01T17:19:51;5.30;99.90
24772;DHT22;12870;52.274;9.754;2023-02-01T17:22:22;5.30;99.90
24772;DHT22;12870;52.274;9.754;2023-02-01T17:24:48;5.30;99.90
24772;DHT22;12870;52.274;9.754;2023-02-01T17:27:15;5.30;99.90
24772;DHT22;12870;52.274;9.754;2023-02-01T17:29:41;5.30;99.90
24772;DHT22;12870;52.274;9.754;2023-02-01T17:32:17;5.30;99.90
24772;DHT22;12870;52.274;9.754;2023-02-01T17:34:44;5.30;99.90
24772;DHT22;12870;52.274;9.754;2023-02-01T17:37:37;5.30;99.90
24772;DHT22;12870;52.274;9.754;2023-02-01T17:40:03;5.40;99.90
24772;DHT22;12870;52.274;9.754;2023-02-01T17:42:29;5.40;99.90
24772;DHT22;12870;52.274;9.754;2023-02-01T17:45:01;5.50;99.90
24772;DHT22;12870;52.274;9.754;2023-02-01T17:47:27;5.60;99.90
24772;DHT22;12870;52.274;9.754;2023-02-01T17:49:53;5.60;99.90
24772;DHT22;12870;52.274;9.754;2023-02-01T17:52:23;5.60;99.90
24772;DHT22;12870;52.274;9.754;2023-02-01T17:54:49;5.60;99.90
24772;DHT22;12870;52.274;9.754;2023-02-01T17:57:18;5.60;99.90
24772;DHT22;12870;52.274;9.754;2023-02-01T17:59:44;5.70;99.90
24772;DHT22;12870;52.274;9.754;2023-02-01T18:02:20;5.60;99.90
24772;DHT22;12870;52.274;9.754;2023-02-01T18:04:46;5.70;99.90
24772;DHT22;12870;52.274;9.754;2023-02-01T18:07:19;5.70;99.90
24772;DHT22;12870;52.274;9.754;2023-02-01T18:09:45;5.80;99.90
24772;DHT22;12870;52.274;9.754;2023-02-01T18:12:20;5.80;99.90
24772;DHT22;12870;52.274;9.754;2023-02-01T18:14:46;5.80;99.90
24772;DHT22;12870;52.274;9.754;2023-02-01T18:17:12;5.80;99.90
24772;DHT22;12870;52.274;9.754;2023-02-01T18:19:38;5.80;99.90
24772;DHT22;12870;52.274;9.754;2023-02-01T18:22:04;5.80;99.90
24772;DHT22;12870;52.274;9.754;2023-02-01T18:24:30;5.80;99.90
24772;DHT22;12870;52.274;9.754;2023-02-01T18:26:58;5.80;99.90
24772;DHT22;12870;52.274;9.754;2023-02-01T18:29:24;5.80;99.90
24772;DHT22;12870;52.274;9.754;2023-02-01T18:31:50;5.70;99.90
24772;DHT22;12870;52.274;9.754;2023-02-01T18:34:16;5.70;99.90
24772;DHT22;12870;52.274;9.754;2023-02-01T18:36:47;5.50;99.90
24772;DHT22;12870;52.274;9.754;2023-02-01T18:39:13;5.60;99.90
24772;DHT22;12870;52.274;9.754;2023-02-01T18:41:39;5.60;99.90
24772;DHT22;12870;52.274;9.754;2023-02-01T18:44:08;5.50;99.90